Time;durP1;ratioP1;P1;durP2;ratioP2;P2;SDS_P1;SDS_P2;PMS_P1;PMS_P2;Temp;Humidity;BMP_temperature;BMP_pressure;BME280_temperature;BME280_humidity;BME280_pressure;Samples;Min_cycle;Max_cycle;Signal;HPM_P1;HPM_P2
2021/11/13 00:01:46;;;;;;;;;;;23.30;98.60;;;;;;5117187;28;20007;-70
2021/11/13 00:04:12;;;;;;;;;;;23.20;98.60;;;;;;5116760;28;19947;-70
2021/11/13 00:06:37;;;;;;;;;;;23.20;98.60;;;;;;5115926;28;19915;-70
2021/11/13 00:09:03;;;;;;;;;;;23.20;98.60;;;;;;5116888;28;19908;-70
2021/11/13 00:11:29;;;;;;;;;;;23.20;98.60;;;;;;5116758;28;19938;-70
2021/11/13 00:13:55;;;;;;;;;;;23.20;98.60;;;;;;5116666;28;19919;-68
2021/11/13 00:16:20;;;;;;;;;;;23.20;98.60;;;;;;5116672;28;19907;-68
2021/11/13 00:18:47;;;;;;;;;;;23.20;98.60;;;;;;5116526;28;20321;-68
2021/11/13 00:21:13;;;;;;;;;;;23.10;98.60;;;;;;5116161;28;19908;-68
2021/11/13 00:23:39;;;;;;;;;;;23.10;98.60;;;;;;5116568;28;19914;-68
2021/11/13 00:26:05;;;;;;;;;;;23.10;98.60;;;;;;5098172;28;20002;-68
2021/11/13 00:28:30;;;;;;;;;;;23.10;98.60;;;;;;5116432;28;20312;-68
2021/11/13 00:30:56;;;;;;;;;;;23.10;98.60;;;;;;5116459;28;19915;-68
2021/11/13 00:33:21;;;;;;;;;;;23.10;98.60;;;;;;5116215;28;19920;-68
2021/11/13 00:35:47;;;;;;;;;;;23.10;98.60;;;;;;5115767;28;19926;-68
2021/11/13 00:38:13;;;;;;;;;;;23.10;98.60;;;;;;5116302;28;19953;-68
2021/11/13 00:40:39;;;;;;;;;;;23.00;98.60;;;;;;5116067;28;20271;-68
2021/11/13 00:43:04;;;;;;;;;;;23.10;98.60;;;;;;5116370;28;19912;-68
2021/11/13 00:45:30;;;;;;;;;;;23.00;98.60;;;;;;5116143;28;19961;-68
2021/11/13 00:47:56;;;;;;;;;;;23.00;98.60;;;;;;5116109;28;19908;-68
2021/11/13 00:50:22;;;;;;;;;;;23.00;98.60;;;;;;5115399;28;19914;-68
2021/11/13 00:52:47;;;;;;;;;;;23.00;98.60;;;;;;5115991;28;20445;-68
2021/11/13 00:55:19;;;;;;;;;;;23.00;98.50;;;;;;5115886;28;20401;-68
2021/11/13 00:57:44;;;;;;;;;;;23.00;98.60;;;;;;5116185;28;19908;-68
2021/11/13 01:00:11;;;;;;;;;;;22.90;98.50;;;;;;5115849;28;19912;-68
2021/11/13 01:02:37;;;;;;;;;;;22.90;98.50;;;;;;5115826;28;19914;-68
2021/11/13 01:05:03;;;;;;;;;;;22.90;98.50;;;;;;5115253;28;19908;-68
2021/11/13 01:07:29;;;;;;;;;;;22.90;98.50;;;;;;5115598;28;19930;-68
2021/11/13 01:09:54;;;;;;;;;;;22.90;98.50;;;;;;5115659;28;20352;-68
2021/11/13 01:12:20;;;;;;;;;;;22.90;98.60;;;;;;5115678;28;20063;-68
2021/11/13 01:14:45;;;;;;;;;;;22.90;98.60;;;;;;5115402;28;19957;-68
2021/11/13 01:17:12;;;;;;;;;;;22.90;98.60;;;;;;5114649;28;20332;-68
2021/11/13 01:19:38;;;;;;;;;;;22.80;98.50;;;;;;5114925;28;20379;-68
2021/11/13 01:22:04;;;;;;;;;;;22.80;98.80;;;;;;5115214;28;19908;-70
2021/11/13 01:24:30;;;;;;;;;;;22.80;98.60;;;;;;5115408;28;20305;-68
2021/11/13 01:26:55;;;;;;;;;;;22.80;98.50;;;;;;5115306;28;20279;-68
2021/11/13 01:29:21;;;;;;;;;;;22.80;98.50;;;;;;5115336;28;20406;-68
2021/11/13 01:31:47;;;;;;;;;;;22.80;98.50;;;;;;5115365;28;19950;-71
2021/11/13 01:34:13;;;;;;;;;;;22.80;98.50;;;;;;5114417;28;19919;-71
2021/11/13 01:36:38;;;;;;;;;;;22.70;98.50;;;;;;5115040;28;19952;-71
2021/11/13 01:39:04;;;;;;;;;;;22.70;98.50;;;;;;5115059;28;19907;-70
2021/11/13 01:41:29;;;;;;;;;;;22.70;98.50;;;;;;5115037;28;19908;-70
2021/11/13 01:43:55;;;;;;;;;;;22.70;98.50;;;;;;5115083;28;19912;-71
2021/11/13 01:46:21;;;;;;;;;;;22.70;98.50;;;;;;5114898;28;20011;-71
2021/11/13 01:48:46;;;;;;;;;;;22.70;98.50;;;;;;5114365;28;19908;-71
2021/11/13 01:51:15;;;;;;;;;;;22.70;98.50;;;;;;5114970;28;19907;-71
2021/11/13 01:53:41;;;;;;;;;;;22.70;98.50;;;;;;5114774;28;19937;-71
2021/11/13 01:56:06;;;;;;;;;;;22.70;98.50;;;;;;5114812;28;19907;-71
2021/11/13 01:58:32;;;;;;;;;;;22.70;98.50;;;;;;5114663;28;19998;-71
2021/11/13 02:00:58;;;;;;;;;;;22.70;98.50;;;;;;5114725;28;19911;-71
2021/11/13 02:03:24;;;;;;;;;;;22.70;98.50;;;;;;5114215;28;19960;-71
2021/11/13 02:05:50;;;;;;;;;;;22.60;98.50;;;;;;5114631;28;19911;-71
2021/11/13 02:08:19;;;;;;;;;;;22.60;98.50;;;;;;5114775;28;19960;-71
2021/11/13 02:10:45;;;;;;;;;;;22.60;98.50;;;;;;5114499;28;19908;-71
2021/11/13 02:13:11;;;;;;;;;;;22.60;98.50;;;;;;5114608;28;20017;-71
2021/11/13 02:15:36;;;;;;;;;;;22.60;98.50;;;;;;5114513;28;19951;-71
2021/11/13 02:18:02;;;;;;;;;;;22.60;98.50;;;;;;5114013;28;19908;-71
2021/11/13 02:20:37;;;;;;;;;;;22.60;98.50;;;;;;5114354;28;19915;-71
2021/11/13 02:23:08;;;;;;;;;;;22.60;98.50;;;;;;5114382;28;19908;-71
2021/11/13 02:25:34;;;;;;;;;;;22.60;98.50;;;;;;5114332;28;19919;-71
2021/11/13 02:28:00;;;;;;;;;;;22.50;98.40;;;;;;5096002;28;19908;-71
2021/11/13 02:30:26;;;;;;;;;;;22.50;98.50;;;;;;5114453;28;20363;-71
2021/11/13 02:32:54;;;;;;;;;;;22.50;98.50;;;;;;5113677;28;19923;-71
2021/11/13 02:35:20;;;;;;;;;;;22.50;98.50;;;;;;5114364;28;19912;-71
2021/11/13 02:37:46;;;;;;;;;;;22.50;98.50;;;;;;5114192;28;19912;-71
2021/11/13 02:40:12;;;;;;;;;;;22.50;98.50;;;;;;5114376;28;19908;-71
2021/11/13 02:42:38;;;;;;;;;;;22.50;98.50;;;;;;5114176;28;19908;-71
2021/11/13 02:45:05;;;;;;;;;;;22.50;98.50;;;;;;5114200;28;20343;-71
2021/11/13 02:47:30;;;;;;;;;;;22.40;98.50;;;;;;5113444;28;20360;-72
2021/11/13 02:49:56;;;;;;;;;;;22.50;98.50;;;;;;5114050;28;19915;-71
2021/11/13 02:52:21;;;;;;;;;;;22.40;98.50;;;;;;5113992;28;19915;-71
2021/11/13 02:54:48;;;;;;;;;;;22.40;98.50;;;;;;5114064;28;19907;-71
2021/11/13 02:57:14;;;;;;;;;;;22.40;98.50;;;;;;5114100;28;19908;-71
2021/11/13 02:59:43;;;;;;;;;;;22.40;98.50;;;;;;5113996;28;19915;-71
2021/11/13 03:02:09;;;;;;;;;;;22.40;98.50;;;;;;5113460;28;19915;-71
2021/11/13 03:04:34;;;;;;;;;;;22.40;98.50;;;;;;5114152;28;19908;-71
2021/11/13 03:06:59;;;;;;;;;;;22.40;98.50;;;;;;5113921;28;19908;-71
2021/11/13 03:09:25;;;;;;;;;;;22.40;98.50;;;;;;5113784;28;20288;-71
2021/11/13 03:11:50;;;;;;;;;;;22.40;98.50;;;;;;5113793;28;20372;-71
2021/11/13 03:14:16;;;;;;;;;;;22.30;98.50;;;;;;5113973;28;19915;-71
2021/11/13 03:16:41;;;;;;;;;;;22.30;98.50;;;;;;5113359;28;19908;-71
2021/11/13 03:19:07;;;;;;;;;;;22.30;98.50;;;;;;5113886;28;20012;-71
2021/11/13 03:21:32;;;;;;;;;;;22.30;98.50;;;;;;5113988;28;19961;-71
2021/11/13 03:23:58;;;;;;;;;;;22.30;98.50;;;;;;5113770;28;19908;-72
2021/11/13 03:26:26;;;;;;;;;;;22.30;98.70;;;;;;5113833;28;19908;-72
2021/11/13 03:28:53;;;;;;;;;;;22.30;98.50;;;;;;5113729;28;19918;-71
2021/11/13 03:31:22;;;;;;;;;;;22.30;98.50;;;;;;5113137;28;19991;-71
2021/11/13 03:33:47;;;;;;;;;;;22.20;98.50;;;;;;5113924;28;19995;-71
2021/11/13 03:36:16;;;;;;;;;;;22.30;98.50;;;;;;5113617;28;20321;-71
2021/11/13 03:38:42;;;;;;;;;;;22.20;98.50;;;;;;5113800;28;19915;-71
2021/11/13 03:41:07;;;;;;;;;;;22.20;98.50;;;;;;5116055;28;19908;-71
2021/11/13 03:43:34;;;;;;;;;;;22.20;98.50;;;;;;5117357;28;19908;-71
2021/11/13 03:46:00;;;;;;;;;;;22.20;98.50;;;;;;5116828;28;19907;-71
2021/11/13 03:48:25;;;;;;;;;;;22.20;98.50;;;;;;5117248;28;19934;-71
2021/11/13 03:50:51;;;;;;;;;;;22.20;98.50;;;;;;5117423;28;20343;-71
2021/11/13 03:53:16;;;;;;;;;;;22.20;98.50;;;;;;5117117;28;19969;-71
2021/11/13 03:55:42;;;;;;;;;;;22.20;98.50;;;;;;5098773;28;19981;-71
2021/11/13 03:58:07;;;;;;;;;;;22.20;98.50;;;;;;5116954;28;19908;-71
2021/11/13 04:00:33;;;;;;;;;;;22.20;98.50;;;;;;5116543;28;19915;-71
2021/11/13 04:02:58;;;;;;;;;;;22.20;98.50;;;;;;5116957;28;19915;-71
2021/11/13 04:05:24;;;;;;;;;;;22.20;98.50;;;;;;5116940;28;20321;-71
2021/11/13 04:07:50;;;;;;;;;;;22.10;98.50;;;;;;5116795;28;19984;-71
2021/11/13 04:10:16;;;;;;;;;;;22.10;98.50;;;;;;5116846;28;19911;-71
2021/11/13 04:12:42;;;;;;;;;;;22.10;98.50;;;;;;5116724;28;19911;-71
2021/11/13 04:15:07;;;;;;;;;;;22.10;98.50;;;;;;5115948;28;19960;-71
2021/11/13 04:17:33;;;;;;;;;;;22.10;98.50;;;;;;5116876;28;19907;-71
2021/11/13 04:19:58;;;;;;;;;;;22.10;98.50;;;;;;5116842;28;20272;-72
2021/11/13 04:22:24;;;;;;;;;;;22.10;98.50;;;;;;5116761;28;19908;-71
2021/11/13 04:24:50;;;;;;;;;;;22.10;98.50;;;;;;5116609;28;19908;-71
2021/11/13 04:27:15;;;;;;;;;;;22.10;98.50;;;;;;5116298;28;20006;-71
2021/11/13 04:29:45;;;;;;;;;;;22.10;98.50;;;;;;5116067;28;19953;-72
2021/11/13 04:32:10;;;;;;;;;;;22.10;98.50;;;;;;5116179;28;19908;-71
2021/11/13 04:35:15;;;;;;;;;;;22.10;98.50;;;;;;5098138;28;20319;-71
2021/11/13 04:37:28;;;;;;;;;;;22.10;98.50;;;;;;5112124;28;19908;-71
2021/11/13 04:39:53;;;;;;;;;;;22.10;98.50;;;;;;5116247;28;19908;-71
2021/11/13 04:42:19;;;;;;;;;;;22.00;98.50;;;;;;5115847;28;19915;-71
2021/11/13 04:44:45;;;;;;;;;;;22.00;98.50;;;;;;5116188;28;19931;-71
2021/11/13 04:47:10;;;;;;;;;;;22.00;98.50;;;;;;5116211;28;19908;-71
2021/11/13 04:49:36;;;;;;;;;;;22.00;98.50;;;;;;5115953;28;19914;-71
2021/11/13 04:52:03;;;;;;;;;;;22.00;98.50;;;;;;5116029;28;19908;-72
2021/11/13 04:54:29;;;;;;;;;;;22.00;98.50;;;;;;5115943;28;19915;-71
2021/11/13 04:56:54;;;;;;;;;;;22.00;98.50;;;;;;5115404;28;20324;-71
2021/11/13 04:59:20;;;;;;;;;;;22.00;98.50;;;;;;5115843;28;19915;-71
2021/11/13 05:01:46;;;;;;;;;;;22.00;98.50;;;;;;5115726;28;19956;-68
2021/11/13 05:04:11;;;;;;;;;;;22.00;98.50;;;;;;5115603;28;20279;-69
2021/11/13 05:06:37;;;;;;;;;;;22.00;98.50;;;;;;5115837;28;19995;-69
2021/11/13 05:09:02;;;;;;;;;;;21.90;98.50;;;;;;5115665;28;20011;-69
2021/11/13 05:11:27;;;;;;;;;;;21.90;98.50;;;;;;5096814;28;19908;-69
2021/11/13 05:13:53;;;;;;;;;;;21.90;98.50;;;;;;5115466;28;19915;-69
2021/11/13 05:16:18;;;;;;;;;;;21.90;98.50;;;;;;5115479;28;19951;-69
2021/11/13 05:18:44;;;;;;;;;;;21.90;98.50;;;;;;5115626;28;19977;-68
2021/11/13 05:21:09;;;;;;;;;;;21.90;98.50;;;;;;5115391;28;19908;-68
2021/11/13 05:23:36;;;;;;;;;;;21.90;98.50;;;;;;5115468;28;19954;-68
2021/11/13 05:26:02;;;;;;;;;;;21.80;98.40;;;;;;5114680;28;19907;-68
2021/11/13 05:28:29;;;;;;;;;;;21.80;98.40;;;;;;5115522;28;19953;-68
2021/11/13 05:30:56;;;;;;;;;;;21.90;98.50;;;;;;5115315;28;19908;-68
2021/11/13 05:33:21;;;;;;;;;;;21.80;98.50;;;;;;5114971;28;19919;-69
2021/11/13 05:35:47;;;;;;;;;;;21.80;98.50;;;;;;5115122;28;19930;-69
2021/11/13 05:38:12;;;;;;;;;;;21.80;98.50;;;;;;5115010;28;19908;-68
2021/11/13 05:40:38;;;;;;;;;;;21.80;98.50;;;;;;5114602;28;19915;-69
2021/11/13 05:43:03;;;;;;;;;;;21.80;98.50;;;;;;5096814;28;19960;-68
2021/11/13 05:45:29;;;;;;;;;;;21.80;98.50;;;;;;5115002;28;20411;-68
2021/11/13 05:47:54;;;;;;;;;;;21.80;98.50;;;;;;5114957;28;20407;-69
2021/11/13 05:50:20;;;;;;;;;;;21.80;98.50;;;;;;5096616;28;20376;-69
2021/11/13 05:52:46;;;;;;;;;;;21.80;98.50;;;;;;5114576;28;20264;-69
2021/11/13 05:55:12;;;;;;;;;;;21.80;98.50;;;;;;5114252;28;20387;-67
2021/11/13 05:57:38;;;;;;;;;;;21.70;98.50;;;;;;5114813;28;19908;-67
2021/11/13 06:00:06;;;;;;;;;;;21.80;98.50;;;;;;5114787;28;20275;-67
2021/11/13 06:02:31;;;;;;;;;;;21.70;98.50;;;;;;5114376;28;19934;-67
2021/11/13 06:04:57;;;;;;;;;;;21.80;98.50;;;;;;5114804;28;19908;-69
2021/11/13 06:07:22;;;;;;;;;;;21.70;98.50;;;;;;5114552;28;20370;-66
2021/11/13 06:09:48;;;;;;;;;;;21.70;98.50;;;;;;5114146;28;19915;-73
2021/11/13 06:12:13;;;;;;;;;;;21.70;98.60;;;;;;5114498;28;19960;-72
2021/11/13 06:14:39;;;;;;;;;;;21.80;98.60;;;;;;5096230;28;19908;-74
2021/11/13 06:17:04;;;;;;;;;;;21.80;98.60;;;;;;5114569;28;20004;-75
2021/11/13 06:19:29;;;;;;;;;;;21.80;98.70;;;;;;5114316;28;19934;-71
2021/11/13 06:21:55;;;;;;;;;;;21.70;98.60;;;;;;5114392;28;19918;-71
2021/11/13 06:24:20;;;;;;;;;;;21.80;98.70;;;;;;5113909;28;19982;-68
2021/11/13 06:26:46;;;;;;;;;;;21.80;98.70;;;;;;5114482;28;19908;-75
2021/11/13 06:29:11;;;;;;;;;;;21.80;98.70;;;;;;5114303;28;19915;-68
2021/11/13 06:31:37;;;;;;;;;;;21.80;98.70;;;;;;5114034;28;19915;-73
2021/11/13 06:34:02;;;;;;;;;;;21.80;98.80;;;;;;5114168;28;19965;-69
2021/11/13 06:36:28;;;;;;;;;;;21.80;98.80;;;;;;5114268;28;19907;-73
2021/11/13 06:38:54;;;;;;;;;;;21.80;98.80;;;;;;5113677;28;20060;-70
2021/11/13 06:41:21;;;;;;;;;;;21.80;98.80;;;;;;5114245;28;19973;-74
2021/11/13 06:43:46;;;;;;;;;;;21.80;98.80;;;;;;5114338;28;19919;-72
2021/11/13 06:46:11;;;;;;;;;;;21.80;98.80;;;;;;5114113;28;19908;-75
2021/11/13 06:48:37;;;;;;;;;;;21.80;98.80;;;;;;5114171;28;19914;-72
2021/11/13 06:51:02;;;;;;;;;;;21.80;98.90;;;;;;5114135;28;19907;-73
2021/11/13 06:53:28;;;;;;;;;;;21.80;98.90;;;;;;5113478;28;20373;-73
2021/11/13 06:55:53;;;;;;;;;;;21.90;98.90;;;;;;5114055;28;19908;-75
2021/11/13 06:58:19;;;;;;;;;;;21.90;98.80;;;;;;5114063;28;19908;-78
2021/11/13 07:00:44;;;;;;;;;;;21.90;98.80;;;;;;5114018;28;19991;-78
2021/11/13 07:03:10;;;;;;;;;;;21.80;98.70;;;;;;5114191;28;19908;-78
2021/11/13 07:05:35;;;;;;;;;;;21.80;98.70;;;;;;5114001;28;19912;-78
2021/11/13 07:08:01;;;;;;;;;;;21.80;98.70;;;;;;5113386;28;19961;-78
2021/11/13 07:10:28;;;;;;;;;;;21.80;98.70;;;;;;5113951;28;19908;-72
2021/11/13 07:12:53;;;;;;;;;;;21.80;98.70;;;;;;5113719;28;19951;-60
2021/11/13 07:15:19;;;;;;;;;;;21.80;98.60;;;;;;5115247;28;19962;-58
2021/11/13 07:17:45;;;;;;;;;;;21.70;98.70;;;;;;5117914;28;19912;-59
2021/11/13 07:20:11;;;;;;;;;;;21.60;99.00;;;;;;5117761;28;19908;-60
2021/11/13 07:22:38;;;;;;;;;;;21.50;99.20;;;;;;5117069;28;19940;-60
2021/11/13 07:25:03;;;;;;;;;;;21.60;99.40;;;;;;5117744;28;19908;-60
2021/11/13 07:27:29;;;;;;;;;;;21.60;99.50;;;;;;5117774;28;19960;-60
2021/11/13 07:29:59;;;;;;;;;;;21.70;99.60;;;;;;5117554;28;20292;-57
2021/11/13 07:32:25;;;;;;;;;;;21.70;99.70;;;;;;5117587;28;19997;-58
2021/11/13 07:34:51;;;;;;;;;;;21.80;99.80;;;;;;5117740;28;19958;-60
2021/11/13 07:37:16;;;;;;;;;;;21.80;99.80;;;;;;5117021;28;19915;-66
2021/11/13 07:39:43;;;;;;;;;;;21.80;99.90;;;;;;5117386;28;19915;-67
2021/11/13 07:42:08;;;;;;;;;;;21.80;99.90;;;;;;5117377;28;20010;-69
2021/11/13 07:44:34;;;;;;;;;;;21.90;99.90;;;;;;5117444;28;19999;-75
2021/11/13 07:46:59;;;;;;;;;;;22.00;99.90;;;;;;5117171;28;20328;-72
2021/11/13 07:49:25;;;;;;;;;;;22.00;99.90;;;;;;5117364;28;20336;-72
2021/11/13 07:51:50;;;;;;;;;;;22.10;99.90;;;;;;5116779;28;19915;-73
2021/11/13 07:54:16;;;;;;;;;;;22.20;99.90;;;;;;5117287;28;19965;-68
2021/11/13 07:56:41;;;;;;;;;;;22.30;99.90;;;;;;5117186;28;19915;-67
2021/11/13 07:59:07;;;;;;;;;;;22.30;99.90;;;;;;5116983;28;19911;-67
2021/11/13 08:01:32;;;;;;;;;;;22.40;99.80;;;;;;5117081;28;19915;-67
2021/11/13 08:03:58;;;;;;;;;;;22.40;99.70;;;;;;5116964;28;20377;-67
2021/11/13 08:06:23;;;;;;;;;;;22.50;99.60;;;;;;5116474;28;19942;-68
2021/11/13 08:08:49;;;;;;;;;;;22.60;99.60;;;;;;5117073;28;19998;-68
2021/11/13 08:11:14;;;;;;;;;;;22.60;99.40;;;;;;5116788;28;20371;-67
2021/11/13 08:13:42;;;;;;;;;;;22.60;99.30;;;;;;5116897;28;20020;-67
2021/11/13 08:16:07;;;;;;;;;;;22.60;99.30;;;;;;5098417;28;19915;-67
2021/11/13 08:18:33;;;;;;;;;;;22.70;99.20;;;;;;5116777;28;20301;-67
2021/11/13 08:20:59;;;;;;;;;;;22.70;99.10;;;;;;5116155;28;19955;-67
2021/11/13 08:23:25;;;;;;;;;;;22.80;99.10;;;;;;5116580;28;20358;-67
2021/11/13 08:25:52;;;;;;;;;;;22.80;99.00;;;;;;5116071;28;19908;-67
2021/11/13 08:28:19;;;;;;;;;;;22.80;98.90;;;;;;5116742;28;19991;-67
2021/11/13 08:30:44;;;;;;;;;;;22.80;98.80;;;;;;5116454;28;19908;-67
2021/11/13 08:33:10;;;;;;;;;;;22.80;98.70;;;;;;5116208;28;19965;-67
2021/11/13 08:35:37;;;;;;;;;;;22.90;98.70;;;;;;5115803;28;20014;-67
2021/11/13 08:38:02;;;;;;;;;;;22.90;98.60;;;;;;5116212;28;19908;-67
2021/11/13 08:40:28;;;;;;;;;;;22.90;98.60;;;;;;5116283;28;20344;-68
2021/11/13 08:42:54;;;;;;;;;;;22.90;98.50;;;;;;5116375;28;19961;-67
2021/11/13 08:45:19;;;;;;;;;;;22.90;98.50;;;;;;5116225;28;20303;-67
2021/11/13 08:47:45;;;;;;;;;;;22.90;98.40;;;;;;5116139;28;19907;-67
2021/11/13 08:50:17;;;;;;;;;;;23.00;98.40;;;;;;5115539;28;19908;-67
2021/11/13 08:52:43;;;;;;;;;;;23.00;98.30;;;;;;5116183;28;19912;-67
2021/11/13 08:55:09;;;;;;;;;;;23.00;98.30;;;;;;5116066;28;20392;-68
2021/11/13 08:57:34;;;;;;;;;;;23.00;98.20;;;;;;5115895;28;19912;-68
2021/11/13 09:00:00;;;;;;;;;;;23.00;98.20;;;;;;5115803;28;20337;-67
2021/11/13 09:02:27;;;;;;;;;;;23.00;98.20;;;;;;5115953;28;19916;-68
2021/11/13 09:04:53;;;;;;;;;;;23.00;98.10;;;;;;5115338;28;19914;-67
2021/11/13 09:07:19;;;;;;;;;;;23.00;98.10;;;;;;5115746;28;19961;-68
2021/11/13 09:09:45;;;;;;;;;;;23.00;98.00;;;;;;5115656;28;19911;-67
2021/11/13 09:12:14;;;;;;;;;;;23.00;98.00;;;;;;5115650;28;19908;-68
2021/11/13 09:14:40;;;;;;;;;;;23.00;98.00;;;;;;5115546;28;19916;-67
2021/11/13 09:17:05;;;;;;;;;;;23.10;98.00;;;;;;5115467;28;20352;-67
2021/11/13 09:19:31;;;;;;;;;;;23.10;98.00;;;;;;5115052;28;19914;-66
2021/11/13 09:21:56;;;;;;;;;;;23.10;98.00;;;;;;5115326;28;19976;-68
2021/11/13 09:24:22;;;;;;;;;;;23.10;97.90;;;;;;5115204;28;19915;-68
2021/11/13 09:26:48;;;;;;;;;;;23.10;98.00;;;;;;5115390;28;20336;-64
2021/11/13 09:29:14;;;;;;;;;;;23.10;97.90;;;;;;5115235;28;19908;-62
2021/11/13 09:31:42;;;;;;;;;;;23.10;98.00;;;;;;5115229;28;19908;-62
2021/11/13 09:34:11;;;;;;;;;;;23.10;98.00;;;;;;5114298;28;19923;-64
2021/11/13 09:36:37;;;;;;;;;;;23.10;98.00;;;;;;5115139;28;19994;-65
2021/11/13 09:39:03;;;;;;;;;;;23.10;98.00;;;;;;5114378;28;19962;-66
2021/11/13 09:41:29;;;;;;;;;;;23.20;98.00;;;;;;5114991;28;19908;-70
2021/11/13 09:43:54;;;;;;;;;;;23.20;98.00;;;;;;5115064;28;19915;-64
2021/11/13 09:46:20;;;;;;;;;;;23.20;98.00;;;;;;5114893;28;19907;-63
2021/11/13 09:48:48;;;;;;;;;;;23.20;97.90;;;;;;5114531;28;19911;-64
2021/11/13 09:51:14;;;;;;;;;;;23.20;97.90;;;;;;5114782;28;19957;-64
2021/11/13 09:53:39;;;;;;;;;;;23.20;97.90;;;;;;5114944;28;20359;-64
2021/11/13 09:56:05;;;;;;;;;;;23.20;97.90;;;;;;5114882;28;20279;-64
2021/11/13 09:58:30;;;;;;;;;;;23.20;97.80;;;;;;5114742;28;19908;-64
2021/11/13 10:00:56;;;;;;;;;;;23.20;97.80;;;;;;5096064;28;19912;-64
2021/11/13 10:03:22;;;;;;;;;;;23.20;97.80;;;;;;5114693;28;19930;-63
2021/11/13 10:05:51;;;;;;;;;;;23.20;97.80;;;;;;5114629;28;20338;-63
2021/11/13 10:08:17;;;;;;;;;;;23.20;97.80;;;;;;5114530;28;20419;-61
2021/11/13 10:10:43;;;;;;;;;;;23.20;97.70;;;;;;5114644;28;19946;-61
2021/11/13 10:13:41;;;;;;;;;;;23.20;97.70;;;;;;5096224;28;19915;-61
2021/11/13 10:16:07;;;;;;;;;;;23.20;97.70;;;;;;5057858;28;19911;-61
2021/11/13 10:18:35;;;;;;;;;;;23.20;97.70;;;;;;5114519;28;19955;-61
2021/11/13 10:21:03;;;;;;;;;;;23.20;97.70;;;;;;5114589;28;19931;-62
2021/11/13 10:23:29;;;;;;;;;;;23.20;97.70;;;;;;5114368;28;19915;-61
2021/11/13 10:26:02;;;;;;;;;;;23.20;97.60;;;;;;5114472;28;19908;-61
2021/11/13 10:28:28;;;;;;;;;;;23.20;97.60;;;;;;5114230;28;20341;-61
2021/11/13 10:31:06;;;;;;;;;;;23.20;97.60;;;;;;5113987;28;19910;-61
2021/11/13 10:33:32;;;;;;;;;;;23.20;97.60;;;;;;5113888;28;20385;-61
2021/11/13 10:35:58;;;;;;;;;;;23.20;97.60;;;;;;5114320;28;19931;-61
2021/11/13 10:38:23;;;;;;;;;;;23.20;97.90;;;;;;5114193;28;20299;-61
2021/11/13 10:40:50;;;;;;;;;;;23.20;97.60;;;;;;5114283;28;19999;-61
2021/11/13 10:43:16;;;;;;;;;;;23.20;97.60;;;;;;5114144;28;20018;-61
2021/11/13 10:45:42;;;;;;;;;;;23.20;97.60;;;;;;5113806;28;19944;-61
2021/11/13 10:48:21;;;;;;;;;;;23.20;97.60;;;;;;5114215;28;19915;-61
2021/11/13 10:50:46;;;;;;;;;;;23.20;97.60;;;;;;5118119;28;19912;-61
2021/11/13 10:53:14;;;;;;;;;;;23.20;97.60;;;;;;5118179;28;19979;-61
2021/11/13 10:55:40;;;;;;;;;;;23.20;97.60;;;;;;5118262;28;19908;-61
2021/11/13 10:58:25;;;;;;;;;;;23.20;97.60;;;;;;5118375;28;20459;-61
2021/11/13 11:00:50;;;;;;;;;;;23.20;97.60;;;;;;5117695;28;19908;-61
2021/11/13 11:03:15;;;;;;;;;;;23.20;97.60;;;;;;5118246;28;19912;-61
2021/11/13 11:05:47;;;;;;;;;;;23.20;97.60;;;;;;5117958;28;19959;-61
2021/11/13 11:08:30;;;;;;;;;;;23.20;97.60;;;;;;5118096;28;19990;-61
2021/11/13 11:10:56;;;;;;;;;;;23.20;97.60;;;;;;5117984;28;19912;-62
2021/11/13 11:13:40;;;;;;;;;;;23.20;97.60;;;;;;5117647;28;19916;-61
2021/11/13 11:16:20;;;;;;;;;;;23.20;97.60;;;;;;5099436;28;19912;-63
2021/11/13 11:18:53;;;;;;;;;;;23.20;97.60;;;;;;5117894;28;19907;-62
2021/11/13 11:40:13;;;;;;;;;;;;;;;;;;5091968;28;19922;-62
2021/11/13 11:45:17;;;;;;;;;;;23.20;99.90;;;;;;5091737;27;19913;-61
2021/11/13 11:47:43;;;;;;;;;;;23.20;99.90;;;;;;5091459;28;19912;-61
2021/11/13 11:50:09;;;;;;;;;;;;;;;;;;5091222;28;19917;-61
2021/11/13 11:52:35;;;;;;;;;;;;;;;;;;5091312;28;20334;-61
2021/11/13 11:56:40;;;;;;;;;;;;;;;;;;5091639;28;19921;-62
2021/11/13 11:59:07;;;;;;;;;;;22.70;99.90;;;;;;5091039;28;20474;-62
2021/11/13 12:05:34;;;;;;;;;;;;;;;;;;5091435;28;19923;-62
2021/11/13 13:11:48;;;;;;;;;;;;;;;;;;5063863;27;1870584;-59
2021/11/13 13:29:50;;;;;;;;;;;;;;;;;;5088380;28;19919;-59
2021/11/13 15:18:13;;;;;;;;;;;22.70;99.90;;;;;;5091581;28;19919;-59
